Terminal Aerodrome Forecast
Issued by NWS Houston/Galveston TX

Current Version | Previous Version | Text Only | Print | Product List | Glossary On
Versions: 1 2 3 4 5 6 7 8 9 10 11 12 13 14 15 16 17 18 19 20 21 22 23 24 25 26 27 28 29 30 31 32 33 34 35 36 37 38 39 40 41 42 43 44 45 46 47 48 49 50
314
FTUS44 KHGX 280905 AAB
TAFHOU
TAF AMD
KHOU 280905Z 2809/2906 06004KT P6SM VCSH BKN012 BKN017 OVC027
      TEMPO 2809/2811 -RA BKN030
     FM281100 02004KT P6SM -RA VCSH SCT015 BKN250
     FM281600 03006KT P6SM VCSH BKN035 OVC100 PROB30 2818/2822 TSRA
      BKN035CB
     FM290200 05005KT P6SM BKN200=

USA.gov is the U.S. government's official web portal to all federal, state and local government web resources and services.